sensor_id;sensor_type;location;lat;lon;timestamp;pressure;altitude;pressure_sealevel;temperature;humidity
46846;BME280;33947;46.804;134.252;2022-07-05T00:02:56;100151.38;;;31.29;59.92
46846;BME280;33947;46.804;134.252;2022-07-05T00:06:01;100157.63;;;31.53;58.65
46846;BME280;33947;46.804;134.252;2022-07-05T00:09:05;100154.72;;;31.69;59.19
46846;BME280;33947;46.804;134.252;2022-07-05T00:12:11;100151.69;;;31.49;58.70
46846;BME280;33947;46.804;134.252;2022-07-05T00:15:17;100134.91;;;32.04;57.95
46846;BME280;33947;46.804;134.252;2022-07-05T00:18:22;100154.16;;;32.84;56.29
46846;BME280;33947;46.804;134.252;2022-07-05T00:21:28;100150.00;;;33.17;54.88
46846;BME280;33947;46.804;134.252;2022-07-05T00:24:33;100144.94;;;31.52;57.21
46846;BME280;33947;46.804;134.252;2022-07-05T00:27:37;100151.13;;;31.15;58.53
46846;BME280;33947;46.804;134.252;2022-07-05T00:30:42;100138.41;;;31.68;57.07
46846;BME280;33947;46.804;134.252;2022-07-05T00:33:46;100161.81;;;32.30;55.78
46846;BME280;33947;46.804;134.252;2022-07-05T00:36:51;100160.75;;;32.46;54.84
46846;BME280;33947;46.804;134.252;2022-07-05T00:39:55;100135.75;;;33.07;52.30
46846;BME280;33947;46.804;134.252;2022-07-05T00:43:00;100149.59;;;32.91;53.07
46846;BME280;33947;46.804;134.252;2022-07-05T00:46:04;100151.94;;;33.52;52.12
46846;BME280;33947;46.804;134.252;2022-07-05T00:49:08;100148.84;;;34.03;51.33
46846;BME280;33947;46.804;134.252;2022-07-05T00:52:13;100158.66;;;34.26;50.20
46846;BME280;33947;46.804;134.252;2022-07-05T00:55:22;100146.16;;;34.24;51.17
46846;BME280;33947;46.804;134.252;2022-07-05T00:58:27;100123.38;;;34.57;48.81
46846;BME280;33947;46.804;134.252;2022-07-05T01:01:32;100150.97;;;34.90;49.33
46846;BME280;33947;46.804;134.252;2022-07-05T01:04:37;100157.13;;;35.26;48.37
46846;BME280;33947;46.804;134.252;2022-07-05T01:07:42;100123.38;;;35.04;48.53
46846;BME280;33947;46.804;134.252;2022-07-05T01:10:47;100152.19;;;35.69;47.53
46846;BME280;33947;46.804;134.252;2022-07-05T01:13:51;100141.38;;;35.47;44.96
46846;BME280;33947;46.804;134.252;2022-07-05T01:16:56;100134.59;;;35.43;47.46
46846;BME280;33947;46.804;134.252;2022-07-05T01:20:01;100138.13;;;35.77;47.11
46846;BME280;33947;46.804;134.252;2022-07-05T01:23:06;100139.50;;;36.06;46.23
46846;BME280;33947;46.804;134.252;2022-07-05T01:26:11;100143.72;;;36.48;46.03
46846;BME280;33947;46.804;134.252;2022-07-05T01:29:16;100143.81;;;36.34;45.48
46846;BME280;33947;46.804;134.252;2022-07-05T01:32:21;100134.47;;;36.35;44.88
46846;BME280;33947;46.804;134.252;2022-07-05T01:35:25;100143.03;;;36.27;45.75
46846;BME280;33947;46.804;134.252;2022-07-05T01:38:30;100139.00;;;35.64;47.19
46846;BME280;33947;46.804;134.252;2022-07-05T01:41:35;100137.34;;;35.56;46.85
46846;BME280;33947;46.804;134.252;2022-07-05T01:44:40;100130.53;;;35.59;46.01
46846;BME280;33947;46.804;134.252;2022-07-05T01:47:45;100120.19;;;35.14;47.38
46846;BME280;33947;46.804;134.252;2022-07-05T01:50:54;100120.16;;;35.41;46.43
46846;BME280;33947;46.804;134.252;2022-07-05T01:53:59;100106.31;;;35.54;46.43
46846;BME280;33947;46.804;134.252;2022-07-05T01:57:06;100119.44;;;35.72;45.74
46846;BME280;33947;46.804;134.252;2022-07-05T02:00:12;100122.91;;;35.34;47.46
46846;BME280;33947;46.804;134.252;2022-07-05T02:03:17;100123.56;;;34.96;47.84
46846;BME280;33947;46.804;134.252;2022-07-05T02:06:43;100108.09;;;34.61;48.77
46846;BME280;33947;46.804;134.252;2022-07-05T02:09:49;100112.94;;;34.66;49.04
46846;BME280;33947;46.804;134.252;2022-07-05T02:12:53;100108.72;;;34.83;49.13
46846;BME280;33947;46.804;134.252;2022-07-05T02:15:59;100106.81;;;35.11;47.65
46846;BME280;33947;46.804;134.252;2022-07-05T02:19:04;100111.91;;;34.67;49.04
46846;BME280;33947;46.804;134.252;2022-07-05T02:22:13;100104.41;;;34.40;49.09
46846;BME280;33947;46.804;134.252;2022-07-05T02:25:18;100114.97;;;34.10;51.03
46846;BME280;33947;46.804;134.252;2022-07-05T02:28:23;100109.09;;;34.40;48.83
46846;BME280;33947;46.804;134.252;2022-07-05T02:31:28;100103.44;;;33.92;48.55
46846;BME280;33947;46.804;134.252;2022-07-05T02:34:32;100100.75;;;33.29;50.49
46846;BME280;33947;46.804;134.252;2022-07-05T02:37:38;100109.34;;;32.62;52.28
46846;BME280;33947;46.804;134.252;2022-07-05T02:40:43;100105.59;;;32.11;53.68
46846;BME280;33947;46.804;134.252;2022-07-05T02:43:51;100103.50;;;31.61;55.02
46846;BME280;33947;46.804;134.252;2022-07-05T02:47:02;100106.72;;;31.35;56.25
46846;BME280;33947;46.804;134.252;2022-07-05T02:50:10;100095.50;;;30.92;57.57
46846;BME280;33947;46.804;134.252;2022-07-05T02:53:20;100090.00;;;30.92;57.40
46846;BME280;33947;46.804;134.252;2022-07-05T02:56:26;100083.38;;;30.86;58.15
46846;BME280;33947;46.804;134.252;2022-07-05T02:59:32;100078.44;;;30.58;58.63
46846;BME280;33947;46.804;134.252;2022-07-05T03:02:37;100086.25;;;30.46;59.20
46846;BME280;33947;46.804;134.252;2022-07-05T03:05:44;100087.09;;;30.46;59.59
46846;BME280;33947;46.804;134.252;2022-07-05T03:08:49;100075.28;;;30.46;59.38
46846;BME280;33947;46.804;134.252;2022-07-05T03:11:53;100095.19;;;30.40;60.85
46846;BME280;33947;46.804;134.252;2022-07-05T03:14:58;100083.47;;;30.54;59.68
46846;BME280;33947;46.804;134.252;2022-07-05T03:18:04;100085.63;;;30.82;58.94
46846;BME280;33947;46.804;134.252;2022-07-05T03:21:10;100096.16;;;30.94;59.21
46846;BME280;33947;46.804;134.252;2022-07-05T03:24:14;100094.19;;;31.17;58.56
46846;BME280;33947;46.804;134.252;2022-07-05T03:27:18;100088.84;;;31.39;57.88
46846;BME280;33947;46.804;134.252;2022-07-05T03:30:35;100068.75;;;31.09;57.45
46846;BME280;33947;46.804;134.252;2022-07-05T03:33:40;100069.50;;;31.17;56.66
46846;BME280;33947;46.804;134.252;2022-07-05T03:36:46;100068.00;;;31.15;56.60
46846;BME280;33947;46.804;134.252;2022-07-05T03:39:53;100061.19;;;31.11;57.35
46846;BME280;33947;46.804;134.252;2022-07-05T03:42:57;100082.19;;;31.18;56.67
46846;BME280;33947;46.804;134.252;2022-07-05T03:46:06;100065.69;;;31.03;56.60
46846;BME280;33947;46.804;134.252;2022-07-05T03:49:13;100054.06;;;31.01;56.41
46846;BME280;33947;46.804;134.252;2022-07-05T03:52:18;100050.00;;;31.12;57.04
46846;BME280;33947;46.804;134.252;2022-07-05T03:55:31;100042.81;;;30.96;56.34
46846;BME280;33947;46.804;134.252;2022-07-05T03:58:36;100038.47;;;31.02;57.31
46846;BME280;33947;46.804;134.252;2022-07-05T04:01:42;100039.50;;;31.01;56.72
46846;BME280;33947;46.804;134.252;2022-07-05T04:04:48;100042.25;;;31.16;57.07
46846;BME280;33947;46.804;134.252;2022-07-05T04:07:55;100034.53;;;31.19;56.30
46846;BME280;33947;46.804;134.252;2022-07-05T04:11:08;100037.81;;;31.15;56.88
46846;BME280;33947;46.804;134.252;2022-07-05T04:14:16;100044.91;;;31.09;56.27
46846;BME280;33947;46.804;134.252;2022-07-05T04:17:20;100050.56;;;30.78;57.86
46846;BME280;33947;46.804;134.252;2022-07-05T04:20:25;100053.69;;;30.89;57.83
46846;BME280;33947;46.804;134.252;2022-07-05T04:23:30;100045.63;;;30.73;57.88
46846;BME280;33947;46.804;134.252;2022-07-05T04:26:36;100034.56;;;30.81;58.01
46846;BME280;33947;46.804;134.252;2022-07-05T04:29:41;100043.44;;;30.83;57.63
46846;BME280;33947;46.804;134.252;2022-07-05T04:32:47;100034.06;;;30.63;57.88
46846;BME280;33947;46.804;134.252;2022-07-05T04:35:51;100039.19;;;30.42;59.13
46846;BME280;33947;46.804;134.252;2022-07-05T04:38:56;100035.97;;;29.84;60.70
46846;BME280;33947;46.804;134.252;2022-07-05T04:42:03;100030.72;;;29.74;60.96
46846;BME280;33947;46.804;134.252;2022-07-05T04:45:08;100038.06;;;29.73;61.30
46846;BME280;33947;46.804;134.252;2022-07-05T04:48:14;100029.44;;;29.62;61.36
46846;BME280;33947;46.804;134.252;2022-07-05T04:51:18;100043.63;;;29.57;63.92
46846;BME280;33947;46.804;134.252;2022-07-05T04:54:22;100016.78;;;29.60;62.87
46846;BME280;33947;46.804;134.252;2022-07-05T04:57:28;100005.28;;;29.65;63.32
46846;BME280;33947;46.804;134.252;2022-07-05T05:00:39;100019.09;;;29.40;64.05
46846;BME280;33947;46.804;134.252;2022-07-05T05:03:44;100037.22;;;29.41;64.79
46846;BME280;33947;46.804;134.252;2022-07-05T05:06:49;100031.50;;;29.51;64.71
46846;BME280;33947;46.804;134.252;2022-07-05T05:09:54;100009.34;;;29.69;64.31
46846;BME280;33947;46.804;134.252;2022-07-05T05:12:58;100030.88;;;29.72;65.47
46846;BME280;33947;46.804;134.252;2022-07-05T05:16:03;100028.25;;;29.87;64.23
46846;BME280;33947;46.804;134.252;2022-07-05T05:19:07;100021.91;;;29.64;63.91
46846;BME280;33947;46.804;134.252;2022-07-05T05:22:12;100033.63;;;29.72;65.50
46846;BME280;33947;46.804;134.252;2022-07-05T05:25:17;100023.41;;;29.98;63.58
46846;BME280;33947;46.804;134.252;2022-07-05T05:28:22;100004.63;;;29.86;63.87
46846;BME280;33947;46.804;134.252;2022-07-05T05:31:26;100014.94;;;30.08;62.95
46846;BME280;33947;46.804;134.252;2022-07-05T05:34:31;100005.03;;;30.07;63.19
46846;BME280;33947;46.804;134.252;2022-07-05T05:37:47;100019.41;;;30.09;62.93
46846;BME280;33947;46.804;134.252;2022-07-05T05:40:52;100020.06;;;30.11;63.36
46846;BME280;33947;46.804;134.252;2022-07-05T05:43:57;100020.34;;;29.61;64.65
46846;BME280;33947;46.804;134.252;2022-07-05T05:47:01;100011.00;;;29.55;64.68
46846;BME280;33947;46.804;134.252;2022-07-05T05:50:06;100034.81;;;29.46;64.29
46846;BME280;33947;46.804;134.252;2022-07-05T05:53:11;100022.84;;;29.39;63.89
46846;BME280;33947;46.804;134.252;2022-07-05T05:56:15;100033.50;;;29.17;65.37
46846;BME280;33947;46.804;134.252;2022-07-05T05:59:20;100022.38;;;29.27;64.15
46846;BME280;33947;46.804;134.252;2022-07-05T06:02:25;100015.38;;;29.16;64.39
46846;BME280;33947;46.804;134.252;2022-07-05T06:05:29;100008.94;;;29.09;64.00
46846;BME280;33947;46.804;134.252;2022-07-05T06:08:34;100001.00;;;29.23;64.16
46846;BME280;33947;46.804;134.252;2022-07-05T06:11:38;100021.59;;;29.02;64.24
46846;BME280;33947;46.804;134.252;2022-07-05T06:14:43;100006.59;;;29.38;63.37
46846;BME280;33947;46.804;134.252;2022-07-05T06:17:48;99979.59;;;29.66;62.60
46846;BME280;33947;46.804;134.252;2022-07-05T06:20:52;99986.41;;;29.70;61.91
46846;BME280;33947;46.804;134.252;2022-07-05T06:23:57;99991.50;;;29.82;61.65
46846;BME280;33947;46.804;134.252;2022-07-05T06:27:01;99999.41;;;29.77;61.04
46846;BME280;33947;46.804;134.252;2022-07-05T06:30:06;99999.81;;;29.65;61.01
46846;BME280;33947;46.804;134.252;2022-07-05T06:33:11;99996.47;;;29.78;61.12
46846;BME280;33947;46.804;134.252;2022-07-05T06:36:16;99994.25;;;29.82;60.95
46846;BME280;33947;46.804;134.252;2022-07-05T06:39:20;99977.00;;;29.73;60.54
46846;BME280;33947;46.804;134.252;2022-07-05T06:42:25;100006.78;;;29.99;60.52
46846;BME280;33947;46.804;134.252;2022-07-05T06:45:30;100002.63;;;29.80;60.46
46846;BME280;33947;46.804;134.252;2022-07-05T06:48:37;100004.69;;;29.78;60.19
46846;BME280;33947;46.804;134.252;2022-07-05T06:51:41;99984.41;;;29.64;60.53
46846;BME280;33947;46.804;134.252;2022-07-05T06:54:46;100010.38;;;29.77;60.47
46846;BME280;33947;46.804;134.252;2022-07-05T06:58:05;100003.97;;;29.84;61.16
46846;BME280;33947;46.804;134.252;2022-07-05T07:01:14;100002.25;;;29.83;61.22
46846;BME280;33947;46.804;134.252;2022-07-05T07:04:22;100013.16;;;29.92;60.93
46846;BME280;33947;46.804;134.252;2022-07-05T07:07:36;100001.69;;;29.65;61.04
46846;BME280;33947;46.804;134.252;2022-07-05T07:10:59;100008.66;;;29.75;60.48
46846;BME280;33947;46.804;134.252;2022-07-05T07:14:04;100003.19;;;29.75;60.85
46846;BME280;33947;46.804;134.252;2022-07-05T07:17:08;100002.81;;;29.79;60.59
46846;BME280;33947;46.804;134.252;2022-07-05T07:20:13;99984.06;;;29.67;61.70
46846;BME280;33947;46.804;134.252;2022-07-05T07:23:18;99997.72;;;29.75;61.23
46846;BME280;33947;46.804;134.252;2022-07-05T07:26:23;99975.84;;;29.67;61.09
46846;BME280;33947;46.804;134.252;2022-07-05T07:29:29;99994.59;;;29.79;61.72
46846;BME280;33947;46.804;134.252;2022-07-05T07:32:35;99999.34;;;29.85;61.74
46846;BME280;33947;46.804;134.252;2022-07-05T07:35:39;99973.59;;;29.71;61.43
46846;BME280;33947;46.804;134.252;2022-07-05T07:38:44;100001.59;;;29.81;61.42
46846;BME280;33947;46.804;134.252;2022-07-05T07:41:47;99980.69;;;29.57;61.23
46846;BME280;33947;46.804;134.252;2022-07-05T07:44:51;99988.91;;;29.57;61.67
46846;BME280;33947;46.804;134.252;2022-07-05T07:47:55;99985.56;;;29.46;61.54
46846;BME280;33947;46.804;134.252;2022-07-05T07:51:00;99975.94;;;29.51;61.85
46846;BME280;33947;46.804;134.252;2022-07-05T07:54:04;99967.53;;;29.52;61.34
46846;BME280;33947;46.804;134.252;2022-07-05T07:57:09;99974.19;;;29.58;61.67
46846;BME280;33947;46.804;134.252;2022-07-05T08:00:14;99993.97;;;29.68;61.20
46846;BME280;33947;46.804;134.252;2022-07-05T08:03:19;99993.59;;;29.71;61.32
46846;BME280;33947;46.804;134.252;2022-07-05T08:06:24;99985.75;;;29.68;61.63
46846;BME280;33947;46.804;134.252;2022-07-05T08:09:28;99971.59;;;29.65;61.40
46846;BME280;33947;46.804;134.252;2022-07-05T08:12:33;99975.31;;;29.32;62.15
46846;BME280;33947;46.804;134.252;2022-07-05T08:15:38;99975.59;;;29.54;61.87
46846;BME280;33947;46.804;134.252;2022-07-05T08:18:42;99957.47;;;29.53;61.60
46846;BME280;33947;46.804;134.252;2022-07-05T08:22:06;99955.25;;;29.48;60.77
46846;BME280;33947;46.804;134.252;2022-07-05T08:25:13;99961.75;;;29.47;60.97
46846;BME280;33947;46.804;134.252;2022-07-05T08:28:18;99966.06;;;29.33;61.13
46846;BME280;33947;46.804;134.252;2022-07-05T08:31:23;99976.53;;;29.29;61.30
46846;BME280;33947;46.804;134.252;2022-07-05T08:34:27;99962.34;;;29.26;60.79
46846;BME280;33947;46.804;134.252;2022-07-05T08:37:32;99973.28;;;29.26;60.67
46846;BME280;33947;46.804;134.252;2022-07-05T08:40:37;99970.03;;;29.30;60.58
46846;BME280;33947;46.804;134.252;2022-07-05T08:43:46;99973.50;;;29.24;60.47
46846;BME280;33947;46.804;134.252;2022-07-05T08:46:51;99988.19;;;29.23;60.81
46846;BME280;33947;46.804;134.252;2022-07-05T08:49:58;99998.78;;;29.26;60.90
46846;BME280;33947;46.804;134.252;2022-07-05T08:53:05;99994.03;;;29.20;60.60
46846;BME280;33947;46.804;134.252;2022-07-05T08:56:12;99988.13;;;29.00;61.23
46846;BME280;33947;46.804;134.252;2022-07-05T08:59:26;99972.25;;;28.87;61.20
46846;BME280;33947;46.804;134.252;2022-07-05T09:02:31;99985.94;;;28.87;61.62
46846;BME280;33947;46.804;134.252;2022-07-05T09:05:41;99999.91;;;28.92;61.94
46846;BME280;33947;46.804;134.252;2022-07-05T09:08:48;100001.31;;;28.88;62.10
46846;BME280;33947;46.804;134.252;2022-07-05T09:11:52;100008.81;;;28.86;62.41
46846;BME280;33947;46.804;134.252;2022-07-05T09:15:19;99997.53;;;28.72;62.22
46846;BME280;33947;46.804;134.252;2022-07-05T09:18:48;100015.47;;;28.75;62.29
46846;BME280;33947;46.804;134.252;2022-07-05T09:22:05;100007.44;;;28.65;63.31
46846;BME280;33947;46.804;134.252;2022-07-05T09:25:29;100009.34;;;28.56;63.51
46846;BME280;33947;46.804;134.252;2022-07-05T09:28:34;100009.69;;;28.53;63.94
46846;BME280;33947;46.804;134.252;2022-07-05T09:31:40;100009.69;;;28.20;65.08
46846;BME280;33947;46.804;134.252;2022-07-05T09:34:45;100000.66;;;28.28;64.67
46846;BME280;33947;46.804;134.252;2022-07-05T09:37:50;100010.72;;;28.27;64.53
46846;BME280;33947;46.804;134.252;2022-07-05T09:40:57;100025.41;;;28.35;64.16
46846;BME280;33947;46.804;134.252;2022-07-05T09:44:02;100026.59;;;28.24;64.39
46846;BME280;33947;46.804;134.252;2022-07-05T09:47:06;100039.81;;;27.94;66.69
46846;BME280;33947;46.804;134.252;2022-07-05T09:50:11;100030.97;;;28.00;66.76
46846;BME280;33947;46.804;134.252;2022-07-05T09:53:18;100039.34;;;27.98;67.88
46846;BME280;33947;46.804;134.252;2022-07-05T09:56:22;100030.81;;;27.93;67.36
46846;BME280;33947;46.804;134.252;2022-07-05T09:59:29;100038.78;;;27.86;67.01
46846;BME280;33947;46.804;134.252;2022-07-05T10:02:38;100047.16;;;27.85;67.52
46846;BME280;33947;46.804;134.252;2022-07-05T10:05:43;100053.94;;;27.81;67.70
46846;BME280;33947;46.804;134.252;2022-07-05T10:08:48;100042.47;;;27.61;68.72
46846;BME280;33947;46.804;134.252;2022-07-05T10:11:54;100038.63;;;27.45;69.62
46846;BME280;33947;46.804;134.252;2022-07-05T10:14:59;100063.56;;;27.50;69.92
46846;BME280;33947;46.804;134.252;2022-07-05T10:18:13;100064.34;;;27.42;69.86
46846;BME280;33947;46.804;134.252;2022-07-05T10:21:20;100069.28;;;27.39;70.24
46846;BME280;33947;46.804;134.252;2022-07-05T10:24:26;100029.06;;;27.06;71.08
46846;BME280;33947;46.804;134.252;2022-07-05T10:27:32;100052.31;;;27.19;71.33
46846;BME280;33947;46.804;134.252;2022-07-05T10:30:38;100068.13;;;27.15;71.13
46846;BME280;33947;46.804;134.252;2022-07-05T10:33:45;100062.09;;;27.03;72.08
46846;BME280;33947;46.804;134.252;2022-07-05T10:36:49;100074.84;;;26.94;73.03
46846;BME280;33947;46.804;134.252;2022-07-05T10:39:56;100076.31;;;26.89;72.81
46846;BME280;33947;46.804;134.252;2022-07-05T10:43:02;100085.25;;;26.81;73.87
46846;BME280;33947;46.804;134.252;2022-07-05T10:46:07;100080.22;;;26.68;75.06
46846;BME280;33947;46.804;134.252;2022-07-05T10:49:16;100076.03;;;26.55;75.78
46846;BME280;33947;46.804;134.252;2022-07-05T10:52:25;100091.44;;;26.65;75.17
46846;BME280;33947;46.804;134.252;2022-07-05T10:55:52;100102.56;;;26.53;77.16
46846;BME280;33947;46.804;134.252;2022-07-05T10:59:10;100094.47;;;26.43;75.09
46846;BME280;33947;46.804;134.252;2022-07-05T11:02:16;100094.59;;;26.34;75.99
46846;BME280;33947;46.804;134.252;2022-07-05T11:05:21;100098.28;;;26.33;76.21
46846;BME280;33947;46.804;134.252;2022-07-05T11:08:29;100112.91;;;26.32;76.80
46846;BME280;33947;46.804;134.252;2022-07-05T11:15:17;100136.81;;;26.38;77.19
46846;BME280;33947;46.804;134.252;2022-07-05T11:18:23;100124.81;;;26.30;77.39
46846;BME280;33947;46.804;134.252;2022-07-05T11:21:28;100125.03;;;26.19;77.53
46846;BME280;33947;46.804;134.252;2022-07-05T11:24:33;100144.09;;;26.19;77.96
46846;BME280;33947;46.804;134.252;2022-07-05T11:28:04;100153.38;;;25.98;79.29
46846;BME280;33947;46.804;134.252;2022-07-05T11:31:11;100142.88;;;25.76;79.70
46846;BME280;33947;46.804;134.252;2022-07-05T11:34:16;100150.25;;;25.55;81.09
46846;BME280;33947;46.804;134.252;2022-07-05T11:37:25;100152.13;;;25.45;81.15
46846;BME280;33947;46.804;134.252;2022-07-05T11:41:12;100170.19;;;25.36;82.33
46846;BME280;33947;46.804;134.252;2022-07-05T11:44:17;100166.59;;;25.36;82.41
46846;BME280;33947;46.804;134.252;2022-07-05T11:47:22;100161.31;;;25.34;81.85
46846;BME280;33947;46.804;134.252;2022-07-05T11:50:30;100176.75;;;25.34;81.98
46846;BME280;33947;46.804;134.252;2022-07-05T11:53:35;100166.50;;;25.18;82.66
46846;BME280;33947;46.804;134.252;2022-07-05T11:57:00;100179.38;;;25.15;82.79
46846;BME280;33947;46.804;134.252;2022-07-05T12:00:05;100177.25;;;25.09;82.42
46846;BME280;33947;46.804;134.252;2022-07-05T12:03:16;100166.38;;;25.09;82.37
46846;BME280;33947;46.804;134.252;2022-07-05T12:06:21;100188.97;;;25.10;81.89
46846;BME280;33947;46.804;134.252;2022-07-05T12:09:29;100165.13;;;24.84;82.73
46846;BME280;33947;46.804;134.252;2022-07-05T12:12:53;100190.28;;;24.76;83.68
46846;BME280;33947;46.804;134.252;2022-07-05T12:16:00;100178.56;;;24.76;83.36
46846;BME280;33947;46.804;134.252;2022-07-05T12:19:05;100181.28;;;24.85;82.56
46846;BME280;33947;46.804;134.252;2022-07-05T12:22:11;100186.84;;;24.74;83.69
46846;BME280;33947;46.804;134.252;2022-07-05T12:25:19;100173.94;;;24.56;84.85
46846;BME280;33947;46.804;134.252;2022-07-05T12:28:25;100169.22;;;24.49;85.09
46846;BME280;33947;46.804;134.252;2022-07-05T12:31:30;100151.91;;;24.40;85.09
46846;BME280;33947;46.804;134.252;2022-07-05T12:34:36;100161.22;;;24.37;85.04
46846;BME280;33947;46.804;134.252;2022-07-05T12:37:43;100180.06;;;24.39;85.06
46846;BME280;33947;46.804;134.252;2022-07-05T12:40:57;100171.19;;;24.27;86.01
46846;BME280;33947;46.804;134.252;2022-07-05T12:44:02;100160.59;;;24.14;86.82
46846;BME280;33947;46.804;134.252;2022-07-05T12:47:06;100160.72;;;24.12;86.23
46846;BME280;33947;46.804;134.252;2022-07-05T12:50:11;100166.03;;;24.14;86.46
46846;BME280;33947;46.804;134.252;2022-07-05T12:53:17;100186.28;;;24.20;86.30
46846;BME280;33947;46.804;134.252;2022-07-05T12:56:50;100161.38;;;23.95;86.58
46846;BME280;33947;46.804;134.252;2022-07-05T13:00:27;100189.53;;;24.04;86.39
46846;BME280;33947;46.804;134.252;2022-07-05T13:03:55;100194.47;;;23.98;86.65
46846;BME280;33947;46.804;134.252;2022-07-05T13:07:03;100187.34;;;23.97;86.99
46846;BME280;33947;46.804;134.252;2022-07-05T13:10:28;100198.44;;;24.06;86.39
46846;BME280;33947;46.804;134.252;2022-07-05T13:13:42;100189.72;;;23.81;87.33
46846;BME280;33947;46.804;134.252;2022-07-05T13:16:46;100164.41;;;23.70;87.64
46846;BME280;33947;46.804;134.252;2022-07-05T13:19:51;100176.72;;;23.75;87.68
46846;BME280;33947;46.804;134.252;2022-07-05T13:22:56;100198.38;;;23.44;90.07
46846;BME280;33947;46.804;134.252;2022-07-05T13:26:00;100180.75;;;23.59;88.05
46846;BME280;33947;46.804;134.252;2022-07-05T13:29:05;100196.66;;;23.42;89.69
46846;BME280;33947;46.804;134.252;2022-07-05T13:32:09;100179.47;;;23.53;88.24
46846;BME280;33947;46.804;134.252;2022-07-05T13:35:14;100179.47;;;23.53;87.56
46846;BME280;33947;46.804;134.252;2022-07-05T13:38:18;100195.25;;;23.48;88.40
46846;BME280;33947;46.804;134.252;2022-07-05T13:41:24;100169.03;;;23.27;89.01
46846;BME280;33947;46.804;134.252;2022-07-05T13:44:28;100174.31;;;23.29;88.73
46846;BME280;33947;46.804;134.252;2022-07-05T13:47:33;100187.03;;;23.29;89.51
46846;BME280;33947;46.804;134.252;2022-07-05T13:50:37;100140.47;;;23.02;89.19
46846;BME280;33947;46.804;134.252;2022-07-05T13:53:42;100176.44;;;23.25;89.02
46846;BME280;33947;46.804;134.252;2022-07-05T13:56:47;100187.53;;;23.22;89.37
46846;BME280;33947;46.804;134.252;2022-07-05T13:59:55;100168.22;;;23.16;89.06
46846;BME280;33947;46.804;134.252;2022-07-05T14:03:00;100162.88;;;23.04;89.21
46846;BME280;33947;46.804;134.252;2022-07-05T14:06:09;100184.47;;;23.16;89.86
46846;BME280;33947;46.804;134.252;2022-07-05T14:09:13;100171.72;;;23.06;90.16
46846;BME280;33947;46.804;134.252;2022-07-05T14:12:17;100154.03;;;23.02;89.74
46846;BME280;33947;46.804;134.252;2022-07-05T14:15:22;100155.75;;;23.03;89.22
46846;BME280;33947;46.804;134.252;2022-07-05T14:18:27;100178.06;;;23.17;88.90
46846;BME280;33947;46.804;134.252;2022-07-05T14:21:31;100170.72;;;23.07;88.85
46846;BME280;33947;46.804;134.252;2022-07-05T14:24:40;100186.00;;;23.08;89.12
46846;BME280;33947;46.804;134.252;2022-07-05T14:27:45;100185.44;;;22.93;89.58
46846;BME280;33947;46.804;134.252;2022-07-05T14:30:50;100187.66;;;22.67;91.54
46846;BME280;33947;46.804;134.252;2022-07-05T14:33:54;100174.34;;;22.75;90.47
46846;BME280;33947;46.804;134.252;2022-07-05T14:36:58;100177.50;;;22.80;90.31
46846;BME280;33947;46.804;134.252;2022-07-05T14:40:03;100177.75;;;22.77;90.17
46846;BME280;33947;46.804;134.252;2022-07-05T14:43:09;100197.66;;;22.88;89.57
46846;BME280;33947;46.804;134.252;2022-07-05T14:46:13;100204.25;;;22.74;90.24
46846;BME280;33947;46.804;134.252;2022-07-05T14:49:22;100200.06;;;22.69;90.83
46846;BME280;33947;46.804;134.252;2022-07-05T14:52:27;100178.59;;;22.57;90.61
46846;BME280;33947;46.804;134.252;2022-07-05T14:55:33;100172.47;;;22.54;90.81
46846;BME280;33947;46.804;134.252;2022-07-05T14:58:38;100173.94;;;22.47;91.22
46846;BME280;33947;46.804;134.252;2022-07-05T15:01:43;100191.63;;;22.51;91.75
46846;BME280;33947;46.804;134.252;2022-07-05T15:04:48;100192.88;;;22.47;92.99
46846;BME280;33947;46.804;134.252;2022-07-05T15:07:53;100176.88;;;22.44;92.71
46846;BME280;33947;46.804;134.252;2022-07-05T15:10:58;100192.34;;;22.53;92.04
46846;BME280;33947;46.804;134.252;2022-07-05T15:14:03;100192.34;;;22.53;91.73
46846;BME280;33947;46.804;134.252;2022-07-05T15:17:08;100206.88;;;22.52;91.57
46846;BME280;33947;46.804;134.252;2022-07-05T15:20:13;100197.03;;;22.51;91.70
46846;BME280;33947;46.804;134.252;2022-07-05T15:23:20;100208.38;;;22.57;91.51
46846;BME280;33947;46.804;134.252;2022-07-05T15:26:24;100176.66;;;22.36;91.67
46846;BME280;33947;46.804;134.252;2022-07-05T15:29:31;100208.28;;;22.47;91.88
46846;BME280;33947;46.804;134.252;2022-07-05T15:32:36;100200.28;;;22.34;93.02
46846;BME280;33947;46.804;134.252;2022-07-05T15:35:41;100219.94;;;22.36;93.85
46846;BME280;33947;46.804;134.252;2022-07-05T15:38:46;100200.75;;;22.39;93.16
46846;BME280;33947;46.804;134.252;2022-07-05T15:41:51;100202.72;;;22.48;92.43
46846;BME280;33947;46.804;134.252;2022-07-05T15:44:56;100217.13;;;22.49;93.01
46846;BME280;33947;46.804;134.252;2022-07-05T15:48:06;100193.13;;;22.33;92.35
46846;BME280;33947;46.804;134.252;2022-07-05T15:51:10;100209.63;;;22.30;93.00
46846;BME280;33947;46.804;134.252;2022-07-05T15:54:16;100222.53;;;22.37;92.52
46846;BME280;33947;46.804;134.252;2022-07-05T15:57:21;100232.50;;;22.37;92.45